CLT TRACON Summary / KCLT TAF
CLT TRACON Summary:
A departing Low pressure system over the Great Lakes will filter in VFR ceilings over night, and MVFR by morning. Surface winds will be southwest at 5-10kts, shifting northwest by morning. Flight Hazards: Are not expected in the TRACON airspace.

Updated: 11/24/2014 6:35 PM
CLT Terminal Aerodrome Forecast:

FTUS42 KGSP 242320
TAFCLT
TAF
KCLT 242320Z 2500/2524 20006KT P6SM FEW030 SCT120 SCT250
     FM250700 24005KT P6SM BKN100
     FM250900 28006KT P6SM BKN025
     FM251100 30006KT P6SM BKN035
     FM251300 34006KT P6SM OVC060=
CLT TRACON Area Remark:
NONE.
Convective Gate Forecast / Collaborative Convective Forecast Product / Vertical Wind Profile
Convective Gate Forecast
-->
AIRMETs & SIGMETS/ Southeast Radar loop / Satellite Image (click on image to enlarge)

Southeast Radar Loop

 



USA.gov is the U.S. government's official web portal to all federal, state and local government web resources and services.